ADDS METAR Data INFO
IDs: Format: Raw Decoded Include TAF

Data at: 2220 UTC 22 Aug 2017

KGYB 222215Z AUTO 00000KT 10SM CLR 34/17 A2998 RMK AO2 T03430168
KGYB 222155Z AUTO 13003KT 10SM SCT075 SCT085 37/17 A2998 RMK AO2 T03650166
KGYB 222135Z AUTO 11005KT 10SM SCT075 SCT095 37/17 A2999 RMK AO2 T03650171
KGYB 222115Z AUTO 17003KT 10SM CLR 36/17 A3000 RMK AO2 T03610169
KGYB 222055Z AUTO 09003KT 10SM SCT090 35/18 A3001 RMK AO2 T03530176
KGYB 222035Z AUTO 12004KT 10SM SCT060 SCT080 34/18 A3002 RMK AO2 T03420182
KGYB 222015Z AUTO 12005KT 10SM BKN060 BKN080 34/18 A3002 RMK AO2 T03380182
KGYB 221955Z AUTO 09005KT 10SM SCT060 SCT080 35/19 A3003 RMK AO2 T03460185
KGYB 221935Z AUTO 19005KT 10SM SCT055 35/19 A3004 RMK AO2 T03470187
KGYB 221915Z AUTO 17004KT 10SM SCT055 35/19 A3005 RMK AO2 T03460188
KGYB 221855Z AUTO 20005KT 10SM CLR 34/19 A3005 RMK AO2 T03370189
KGYB 221835Z AUTO 21003KT 10SM SCT049 33/19 A3006 RMK AO2 T03330191
KGYB 221815Z AUTO 00000KT 10SM SCT049 32/20 A3007 RMK AO2 T03220195
KGYB 221755Z AUTO 11004KT 10SM CLR 33/20 A3008 RMK AO2 T03260197 10326 20210
KGYB 221735Z AUTO 00000KT 10SM CLR 32/19 A3009 RMK AO2 T03190192
KGYB 221715Z AUTO 21005KT 10SM SCT042 32/20 A3010 RMK AO2 T03180196
KGYB 221655Z AUTO 20003KT 10SM SCT042 32/20 A3010 RMK AO2 T03160199
KGYB 221635Z AUTO 00000KT 10SM SCT036 31/20 A3010 RMK AO2 T03130204
KGYB 221615Z AUTO 22005KT 10SM SCT036 SCT041 31/21 A3010 RMK AO2 T03060212
KGYB 221555Z AUTO 24003KT 10SM CLR 31/21 A3010 RMK AO2 T03050213
KGYB 221535Z AUTO 24003KT 10SM CLR 30/22 A3010 RMK AO2 T03020216
KGYB 221515Z AUTO 23006KT 10SM CLR 29/21 A3010 RMK AO2 T02900213
KGYB 221455Z AUTO 26005KT 10SM SCT016 29/22 A3009 RMK AO2 T02850223
KGYB 221435Z AUTO 23003KT 10SM SCT013 28/23 A3009 RMK AO2 T02750229
KGYB 221415Z AUTO 21003KT 10SM SCT011 27/23 A3008 RMK AO2 T02650230
KGYB 221355Z AUTO 00000KT 10SM CLR 25/23 A3008 RMK AO2 T02510228
KGYB 221335Z AUTO 00000KT 10SM CLR 24/23 A3008 RMK AO2 T02360227
KGYB 221315Z AUTO 00000KT 10SM CLR 23/22 A3007 RMK AO2 T02310224
KGYB 221255Z AUTO 00000KT 10SM CLR 22/22 A3007 RMK AO2 T02230216
KGYB 221235Z AUTO 00000KT 5SM BR CLR 22/21 A3006 RMK AO2 T02150207
KGYB 221215Z AUTO 00000KT 5SM BR CLR 22/21 A3005 RMK AO2 T02180211
KGYB 221155Z AUTO 00000KT 10SM CLR 21/20 A3004 RMK AO2 T02100204 10260 20210
KGYB 221135Z AUTO 00000KT 10SM CLR 22/21 A3004 RMK AO2 T02200213
KGYB 221115Z AUTO 00000KT 5SM BR CLR 22/21 A3004 RMK AO2 T02150208
KGYB 221055Z AUTO 00000KT 7SM CLR 22/21 A3004 RMK AO2 T02150207
KGYB 221035Z AUTO 00000KT 7SM CLR 22/21 A3004 RMK AO2 T02150205
KGYB 221015Z AUTO 00000KT 10SM CLR 22/21 A3004 RMK AO2 T02160206
KGYB 220955Z AUTO 00000KT 10SM SCT018 22/21 A3004 RMK AO2 T02200210
KGYB 220935Z AUTO 00000KT 10SM SCT016 23/22 A3005 RMK AO2 T02250215
KGYB 220915Z AUTO 00000KT 10SM CLR 22/21 A3005 RMK AO2 T02230210
KGYB 220855Z AUTO 00000KT 10SM CLR 23/22 A3005 RMK AO2 T02330218
KGYB 220835Z AUTO 00000KT 10SM CLR 23/22 A3006 RMK AO2 T02310218
KGYB 220815Z AUTO 00000KT 10SM CLR 23/22 A3006 RMK AO2 T02330219
KGYB 220755Z AUTO 00000KT 10SM CLR 24/22 A3007 RMK AO2 T02420222
KGYB 220735Z AUTO 00000KT 10SM CLR 25/22 A3007 RMK AO2 T02450222
KGYB 220715Z AUTO 00000KT 10SM CLR 25/22 A3008 RMK AO2 T02500223
KGYB 220655Z AUTO 00000KT 10SM CLR 25/22 A3009 RMK AO2 T02480223
KGYB 220635Z AUTO 00000KT 10SM CLR 25/22 A3009 RMK AO2 T02530221
KGYB 220615Z AUTO 19003KT 10SM CLR 26/22 A3009 RMK AO2 T02570221
KGYB 220555Z AUTO 18003KT 10SM CLR 26/22 A3010 RMK AO2 T02600221 10340 20260 403570218
KGYB 220535Z AUTO 19004KT 10SM CLR 26/22 A3010 RMK AO2 T02620220
KGYB 220515Z AUTO 17004KT 10SM CLR 27/22 A3010 RMK AO2 T02660220
KGYB 220455Z AUTO 17004KT 10SM CLR 27/22 A3010 RMK AO2 T02670220
KGYB 220435Z AUTO 16005KT 10SM CLR 27/22 A3010 RMK AO2 T02700218
KGYB 220415Z AUTO 17005KT 10SM CLR 27/22 A3009 RMK AO2 T02710218
KGYB 220355Z AUTO 18005KT 10SM CLR 28/22 A3009 RMK AO2 T02750217
KGYB 220335Z AUTO 17005KT 10SM CLR 28/22 A3009 RMK AO2 T02800215
KGYB 220315Z AUTO 18006KT 10SM CLR 29/21 A3009 RMK AO2 T02860210
KGYB 220255Z AUTO 17005KT 10SM SCT055 29/21 A3007 RMK AO2 T02940207
KGYB 220235Z AUTO 15004KT 10SM SCT055 30/21 A3006 RMK AO2 T02980207
KGYB 220215Z AUTO 14007KT 10SM CLR 30/21 A3005 RMK AO2 T03030208
KGYB 220155Z AUTO 14007G14KT 100V160 10SM SCT050 SCT060 BKN070 31/21 A3004 RMK AO2 T03100211
KGYB 220135Z AUTO 13008KT 10SM SCT048 BKN055 OVC070 31/21 A3003 RMK AO2 T03120210
KGYB 220115Z AUTO 10009KT 10SM SCT070 31/20 A3002 RMK AO2 T03130203
KGYB 220055Z AUTO 10006KT 10SM SCT110 32/20 A3002 RMK AO2 T03200198
KGYB 220035Z AUTO 10005KT 10SM SCT065 SCT075 BKN110 33/19 A3001 RMK AO2 T03250193
KGYB 220015Z AUTO 10008KT 10SM SCT070 SCT075 BKN085 33/19 A3001 RMK AO2 T03290191
KGYB 212355Z AUTO 10009KT 10SM CLR 34/19 A3001 RMK AO2 T03410191 10357 20315
KGYB 212335Z AUTO 08009KT 10SM SCT080 SCT100 35/19 A3000 RMK AO2 T03450189
KGYB 212315Z AUTO 13005KT 10SM SCT080 SCT100 35/18 A3000 RMK AO2 T03450176
KGYB 212255Z AUTO 12003KT 10SM SCT070 SCT080 34/18 A3001 RMK AO2 T03440182
KGYB 212235Z AUTO 13005KT 10SM SCT070 BKN080 34/18 A3001 RMK AO2 T03440175
KGYB 212215Z AUTO 09005KT 10SM SCT070 SCT090 36/18 A3001 RMK AO2 T03550178
KGYB 212155Z AUTO 21003KT 10SM SCT070 SCT090 34/17 A3002 RMK AO2 T03410165
KGYB 212135Z AUTO 00000KT 10SM SCT070 35/18 A3002 RMK AO2 T03500175
KGYB 212115Z AUTO 09003KT 10SM SCT075 SCT080 35/18 A3002 RMK AO2 T03500175
KGYB 212055Z AUTO 19004KT 10SM SCT060 SCT080 SCT090 35/18 A3003 RMK AO2 T03510180
KGYB 212035Z AUTO 07003KT 10SM BKN060 BKN080 OVC085 34/19 A3004 RMK AO2 T03400188
KGYB 212015Z AUTO 11003KT 10SM BKN060 OVC070 35/19 A3005 RMK AO2 T03530192
KGYB 211955Z AUTO 17005KT 10SM SCT050 BKN065 BKN080 35/19 A3006 RMK AO2 T03450190
KGYB 211935Z AUTO 13006KT 10SM SCT050 BKN065 34/20 A3006 RMK AO2 T03370198
KGYB 211915Z AUTO 09004KT 10SM SCT050 BKN065 33/20 A3006 RMK AO2 T03270198
KGYB 211855Z AUTO 17005KT 10SM CLR 33/20 A3007 RMK AO2 T03280197
KGYB 211835Z AUTO 00000KT 10SM SCT050 32/20 A3007 RMK AO2 T03210195
KGYB 211815Z AUTO 15003KT 10SM SCT050 32/19 A3007 RMK AO2 T03170194
KGYB 211755Z AUTO 00000KT 10SM SCT050 SCT060 32/19 A3008 RMK AO2 T03220194 10328 20220
KGYB 211735Z AUTO 11004KT 10SM SCT050 33/20 A3009 RMK AO2 T03260199
KGYB 211715Z AUTO 19006KT 10SM SCT050 32/20 A3009 RMK AO2 T03240199
KGYB 211655Z AUTO 00000KT 10SM SCT040 SCT047 32/20 A3010 RMK AO2 T03160200
KGYB 211635Z AUTO 00000KT 10SM BKN039 BKN046 31/21 A3010 RMK AO2 T03050206
KGYB 211615Z AUTO 23004KT 10SM SCT037 32/21 A3011 RMK AO2 T03190206
KGYB 211555Z AUTO 00000KT 10SM SCT035 31/21 A3011 RMK AO2 T03120208
KGYB 211535Z AUTO 00000KT 10SM SCT030 SCT037 30/21 A3011 RMK AO2 T02970211
KGYB 211515Z AUTO 21003KT 10SM CLR 29/21 A3010 RMK AO2 T02940210
KGYB 211455Z AUTO 19003KT 10SM SCT019 28/22 A3010 RMK AO2 T02840220
KGYB 211435Z AUTO 00000KT 10SM CLR 28/23 A3009 RMK AO2 T02800228
KGYB 211415Z AUTO 00000KT 10SM CLR 27/23 A3009 RMK AO2 T02720229
KGYB 211355Z AUTO 00000KT 10SM CLR 27/23 A3009 RMK AO2 T02650230
KGYB 211335Z AUTO 00000KT 10SM CLR 25/23 A3009 RMK AO2 T02530228
KGYB 211315Z AUTO 00000KT 10SM CLR 24/23 A3008 RMK AO2 T02440228
KGYB 211255Z AUTO 00000KT 10SM CLR 23/22 A3008 RMK AO2 T02330223
KGYB 211235Z AUTO 00000KT 7SM CLR 22/21 A3008 RMK AO2 T02210210
KGYB 211215Z AUTO 00000KT 10SM CLR 22/21 A3007 RMK AO2 T02220212
KGYB 211155Z AUTO 00000KT 10SM CLR 22/21 A3007 RMK AO2 T02210211 10271 20218
KGYB 211135Z AUTO 00000KT 5SM BR CLR 22/21 A3007 RMK AO2 T02200210
KGYB 211115Z AUTO 00000KT 10SM CLR 22/21 A3007 RMK AO2 T02240213
KGYB 211055Z AUTO 00000KT 7SM CLR 23/21 A3007 RMK AO2 T02250211
KGYB 211035Z AUTO 00000KT 10SM CLR 23/22 A3007 RMK AO2 T02310216